createdAt,value
2018-04-13T00:01:59.086Z,12.60
2018-04-13T00:04:26.579Z,12.70
2018-04-13T00:06:54.146Z,12.70
2018-04-13T00:09:21.635Z,12.70
2018-04-13T00:11:49.153Z,12.60
2018-04-13T00:14:16.737Z,12.60
2018-04-13T00:16:44.193Z,12.60
2018-04-13T00:19:12.080Z,12.70
2018-04-13T00:21:39.592Z,12.70
2018-04-13T00:24:07.066Z,12.60
2018-04-13T00:26:34.550Z,12.70
2018-04-13T00:29:02.033Z,12.70
2018-04-13T00:31:30.274Z,12.70
2018-04-13T00:33:57.742Z,12.70
2018-04-13T00:36:46.035Z,12.70
2018-04-13T00:39:13.521Z,12.70
2018-04-13T00:41:42.037Z,12.50
2018-04-13T00:44:09.583Z,12.50
2018-04-13T00:46:37.841Z,12.50
2018-04-13T00:49:07.333Z,12.50
2018-04-13T00:51:34.844Z,12.40
2018-04-13T00:54:02.320Z,12.40
2018-04-13T00:56:30.692Z,12.40
2018-04-13T00:58:58.174Z,12.30
2018-04-13T01:01:26.392Z,12.30
2018-04-13T01:03:53.904Z,12.30
2018-04-13T01:06:21.576Z,12.40
2018-04-13T01:08:49.073Z,12.30
2018-04-13T01:11:17.378Z,12.20
2018-04-13T01:13:44.874Z,12.20
2018-04-13T01:16:15.622Z,12.20
2018-04-13T01:18:43.095Z,12.20
2018-04-13T01:21:10.611Z,12.10
2018-04-13T01:26:31.172Z,12.10
2018-04-13T01:29:03.211Z,12.00
2018-04-13T01:31:30.731Z,12.00
2018-04-13T01:33:58.259Z,12.10
2018-04-13T01:36:25.768Z,12.00
2018-04-13T01:38:54.085Z,12.00
2018-04-13T01:41:23.469Z,12.00
2018-04-13T01:43:51.728Z,12.00
2018-04-13T01:46:19.199Z,12.00
2018-04-13T01:48:46.674Z,12.10
2018-04-13T01:51:14.163Z,12.10
2018-04-13T01:53:53.824Z,12.10
2018-04-13T01:56:21.484Z,12.10
2018-04-13T01:58:49.739Z,12.00
2018-04-13T02:01:17.236Z,12.00
2018-04-13T02:03:44.732Z,12.10
2018-04-13T02:06:12.211Z,12.00
2018-04-13T02:08:39.727Z,11.90
2018-04-13T02:11:07.222Z,11.90
2018-04-13T02:13:35.547Z,11.70
2018-04-13T02:16:03.027Z,11.70
2018-04-13T02:18:31.304Z,11.70
2018-04-13T02:20:58.793Z,11.70
2018-04-13T02:23:26.284Z,11.70
2018-04-13T02:25:53.752Z,11.70
2018-04-13T02:28:45.225Z,11.70
2018-04-13T02:31:12.719Z,11.60
2018-04-13T02:33:40.187Z,11.50
2018-04-13T02:36:07.683Z,11.60
2018-04-13T02:38:35.162Z,11.60
2018-04-13T02:41:02.986Z,11.60
2018-04-13T02:43:30.593Z,11.40
2018-04-13T02:46:03.289Z,11.40
2018-04-13T02:48:30.999Z,11.40
2018-04-13T02:50:58.479Z,11.40
2018-04-13T02:53:26.740Z,11.30
2018-04-13T02:55:54.226Z,11.30
2018-04-13T02:58:25.494Z,11.30
2018-04-13T03:00:53.143Z,11.30
2018-04-13T03:03:20.616Z,11.30
2018-04-13T03:05:48.108Z,11.20
2018-04-13T03:08:16.343Z,11.30
2018-04-13T03:10:43.845Z,11.30
2018-04-13T03:13:14.468Z,11.30
2018-04-13T03:15:41.969Z,11.30
2018-04-13T03:18:10.583Z,11.10
2018-04-13T03:20:38.060Z,11.10
2018-04-13T03:23:05.514Z,11.10
2018-04-13T03:25:33.820Z,11.10
2018-04-13T03:28:01.300Z,11.10
2018-04-13T03:30:28.816Z,11.10
2018-04-13T03:32:56.281Z,11.10
2018-04-13T03:35:23.749Z,11.10
2018-04-13T03:37:51.267Z,11.10
2018-04-13T03:40:18.718Z,11.10
2018-04-13T03:42:47.001Z,11.10
2018-04-13T03:45:15.291Z,11.10
2018-04-13T03:47:43.531Z,11.10
2018-04-13T03:50:11.031Z,11.10
2018-04-13T03:52:38.510Z,11.20
2018-04-13T03:55:06.770Z,11.30
2018-04-13T03:57:34.265Z,11.30
2018-04-13T04:00:02.512Z,11.40
2018-04-13T04:02:30.004Z,11.40
2018-04-13T04:04:57.517Z,11.40
2018-04-13T04:07:25.014Z,11.50
2018-04-13T04:09:52.516Z,11.40
2018-04-13T04:12:20.167Z,11.40
2018-04-13T04:14:52.310Z,11.40
2018-04-13T04:17:30.215Z,11.40
2018-04-13T04:20:20.632Z,11.50
2018-04-13T04:23:02.743Z,11.60
2018-04-13T04:25:50.223Z,11.60
2018-04-13T04:31:22.948Z,11.60
2018-04-13T04:33:55.125Z,11.60
2018-04-13T04:36:30.027Z,11.60
2018-04-13T04:39:00.255Z,11.60
2018-04-13T04:41:29.562Z,11.60
2018-04-13T04:44:01.236Z,11.60
2018-04-13T04:46:30.623Z,11.60
2018-04-13T04:49:09.732Z,11.60
2018-04-13T04:51:53.964Z,11.60
2018-04-13T04:54:28.513Z,11.60
2018-04-13T04:56:58.485Z,11.60
2018-04-13T05:02:28.887Z,11.60
2018-04-13T05:04:59.803Z,11.50
2018-04-13T05:07:34.897Z,11.60
2018-04-13T05:10:08.003Z,11.50
2018-04-13T05:13:00.336Z,11.60
2018-04-13T05:15:29.069Z,11.70
2018-04-13T05:18:01.927Z,11.80
2018-04-13T05:20:29.413Z,11.80
2018-04-13T05:22:57.680Z,11.80
2018-04-13T05:25:29.165Z,11.80
2018-04-13T05:28:01.536Z,11.80
2018-04-13T05:30:29.836Z,11.80
2018-04-13T05:36:58.136Z,11.80
2018-04-13T05:39:25.758Z,11.80
2018-04-13T05:41:58.057Z,11.90
2018-04-13T05:50:30.382Z,11.80
2018-04-13T05:56:00.525Z,11.80
2018-04-13T05:58:29.574Z,11.80
2018-04-13T06:00:57.037Z,11.80
2018-04-13T06:03:25.304Z,11.70
2018-04-13T06:05:52.780Z,11.70
2018-04-13T06:08:20.295Z,11.70
2018-04-13T06:11:01.534Z,11.80
2018-04-13T06:13:29.210Z,11.80
2018-04-13T06:15:58.624Z,11.80
2018-04-13T06:18:26.282Z,11.80
2018-04-13T06:21:02.375Z,11.70
2018-04-13T06:23:34.503Z,11.70
2018-04-13T06:26:01.976Z,11.80
2018-04-13T06:28:29.500Z,11.80
2018-04-13T06:30:57.917Z,11.80
2018-04-13T06:33:26.266Z,12.00
2018-04-13T06:35:59.659Z,12.00
2018-04-13T06:38:29.180Z,12.00
2018-04-13T06:40:56.666Z,12.10
2018-04-13T06:43:24.199Z,12.10
2018-04-13T06:45:51.691Z,12.10
2018-04-13T06:48:26.889Z,12.00
2018-04-13T06:50:54.366Z,11.90
2018-04-13T06:53:21.845Z,11.70
2018-04-13T06:55:53.531Z,11.70
2018-04-13T06:58:21.006Z,11.70
2018-04-13T07:00:48.547Z,11.60
2018-04-13T07:03:16.046Z,11.60
2018-04-13T07:05:43.527Z,11.60
2018-04-13T07:08:11.006Z,11.70
2018-04-13T07:10:46.617Z,11.80
2018-04-13T07:13:25.311Z,11.90
2018-04-13T07:15:54.580Z,12.10
2018-04-13T07:18:24.209Z,12.00
2018-04-13T07:20:51.701Z,12.10
2018-04-13T07:23:20.182Z,12.20
2018-04-13T07:25:47.662Z,12.20
2018-04-13T07:28:15.141Z,12.30
2018-04-13T07:30:43.563Z,12.30
2018-04-13T07:33:11.986Z,12.30
2018-04-13T07:35:41.966Z,12.40
2018-04-13T07:38:08.910Z,12.40
2018-04-13T07:40:42.153Z,12.60
2018-04-13T07:43:09.626Z,12.70
2018-04-13T07:45:41.541Z,12.80
2018-04-13T07:48:12.567Z,12.90
2018-04-13T07:50:40.044Z,12.90
2018-04-13T07:53:18.062Z,13.00
2018-04-13T07:55:45.579Z,13.30
2018-04-13T07:58:13.956Z,14.00
2018-04-13T08:00:51.479Z,14.00
2018-04-13T08:03:25.429Z,14.70
2018-04-13T08:06:13.292Z,14.70
2018-04-13T08:08:44.001Z,14.90
2018-04-13T08:11:11.465Z,14.80
2018-04-13T08:13:39.702Z,14.80
2018-04-13T08:16:10.333Z,14.70
2018-04-13T08:18:37.806Z,14.70
2018-04-13T08:21:05.293Z,14.60
2018-04-13T08:23:32.793Z,14.60
2018-04-13T08:26:04.677Z,14.60
2018-04-13T08:28:33.101Z,14.50
2018-04-13T08:31:07.433Z,14.50
2018-04-13T08:33:58.747Z,14.40
2018-04-13T08:36:29.649Z,14.30
2018-04-13T08:39:00.556Z,14.30
2018-04-13T08:44:47.602Z,14.00
2018-04-13T08:47:32.787Z,13.90
2018-04-13T08:50:00.293Z,13.90
2018-04-13T08:52:30.868Z,13.90
2018-04-13T08:54:58.386Z,13.90
2018-04-13T08:57:25.855Z,13.90
2018-04-13T09:00:00.020Z,13.90
2018-04-13T09:02:27.697Z,13.90
2018-04-13T09:04:55.511Z,13.80
2018-04-13T09:07:25.223Z,13.80
2018-04-13T09:09:53.630Z,13.90
2018-04-13T09:12:22.705Z,13.90
2018-04-13T09:14:59.121Z,13.90
2018-04-13T09:17:29.000Z,14.00
2018-04-13T09:20:06.612Z,14.00
2018-04-13T09:22:34.975Z,14.00
2018-04-13T09:25:26.489Z,14.10
2018-04-13T09:27:54.261Z,14.30
2018-04-13T09:30:28.354Z,14.40
2018-04-13T09:32:56.009Z,14.50
2018-04-13T09:35:31.714Z,14.40
2018-04-13T09:37:59.372Z,14.40
2018-04-13T09:40:28.235Z,14.40
2018-04-13T09:42:56.468Z,14.40
2018-04-13T09:45:30.667Z,14.50
2018-04-13T09:47:59.568Z,14.60
2018-04-13T09:50:28.955Z,14.60
2018-04-13T09:52:57.852Z,14.60
2018-04-13T09:55:27.452Z,14.60
2018-04-13T09:57:58.425Z,14.50
2018-04-13T10:00:30.777Z,14.60
2018-04-13T10:09:28.630Z,14.50
2018-04-13T10:11:59.634Z,14.30
2018-04-13T10:14:28.839Z,14.30
2018-04-13T10:16:59.453Z,14.40
2018-04-13T10:19:28.949Z,14.40
2018-04-13T10:22:00.089Z,14.40
2018-04-13T10:27:33.110Z,14.30
2018-04-13T10:30:00.611Z,14.30
2018-04-13T10:32:29.219Z,14.20
2018-04-13T10:35:01.228Z,14.10
2018-04-13T10:37:35.990Z,14.20
2018-04-13T10:40:05.659Z,14.30
2018-04-13T10:42:34.876Z,14.30
2018-04-13T10:45:05.444Z,14.30
2018-04-13T10:47:33.019Z,14.20
2018-04-13T10:50:00.668Z,14.30
2018-04-13T10:52:31.466Z,14.20
2018-04-13T10:55:02.009Z,14.10
2018-04-13T10:57:29.783Z,14.10
2018-04-13T10:59:58.263Z,13.90
2018-04-13T11:02:33.337Z,13.90
2018-04-13T11:05:01.979Z,13.90
2018-04-13T11:07:29.614Z,13.90
2018-04-13T11:10:00.688Z,13.80
2018-04-13T11:12:39.616Z,13.40
2018-04-13T11:15:29.428Z,13.20
2018-04-13T11:18:00.204Z,13.20
2018-04-13T11:20:31.058Z,13.20
2018-04-13T11:23:00.745Z,13.10
2018-04-13T11:25:30.661Z,13.10
2018-04-13T11:27:59.371Z,13.30
2018-04-13T11:30:27.476Z,13.30
2018-04-13T11:32:55.463Z,13.40
2018-04-13T11:35:23.032Z,13.50
2018-04-13T11:40:47.544Z,13.80
2018-04-13T11:43:15.102Z,13.90
2018-04-13T11:45:44.591Z,13.90
2018-04-13T11:48:27.521Z,13.80
2018-04-13T11:50:59.989Z,13.70
2018-04-13T11:53:27.815Z,13.70
2018-04-13T11:56:01.560Z,13.60
2018-04-13T11:58:29.177Z,13.60
2018-04-13T12:00:58.524Z,13.70
2018-04-13T12:03:29.719Z,13.70
2018-04-13T12:05:57.974Z,13.80
2018-04-13T12:14:06.113Z,13.80
2018-04-13T12:30:28.078Z,13.50
2018-04-13T12:32:56.388Z,13.60
2018-04-13T12:35:24.925Z,13.60
2018-04-13T12:37:59.389Z,13.50
2018-04-13T12:40:28.208Z,13.40
2018-04-13T12:42:57.943Z,13.30
2018-04-13T12:45:39.039Z,13.30
2018-04-13T12:51:03.252Z,13.10
2018-04-13T12:53:30.806Z,12.90
2018-04-13T12:56:07.297Z,12.80
2018-04-13T12:58:57.084Z,12.90
2018-04-13T13:01:27.639Z,12.80
2018-04-13T13:04:00.512Z,12.80
2018-04-13T13:06:28.074Z,12.80
2018-04-13T13:08:59.259Z,12.70
2018-04-13T13:14:29.119Z,12.40
2018-04-13T13:16:58.497Z,12.50
2018-04-13T13:19:28.045Z,12.50
2018-04-13T13:21:56.338Z,12.60
2018-04-13T13:24:27.941Z,12.60
2018-04-13T13:26:55.648Z,12.60
2018-04-13T13:29:29.975Z,12.60
2018-04-13T13:31:57.515Z,12.60
2018-04-13T13:34:28.977Z,12.50
2018-04-13T13:36:58.377Z,12.40
2018-04-13T13:39:26.130Z,12.40
2018-04-13T13:41:53.949Z,12.40
2018-04-13T13:44:21.516Z,12.30
2018-04-13T13:46:56.671Z,12.20
2018-04-13T13:49:27.831Z,12.10
2018-04-13T13:51:58.457Z,11.90
2018-04-13T13:54:31.164Z,11.70
2018-04-13T13:56:58.671Z,11.60
2018-04-13T13:59:27.472Z,11.50
2018-04-13T14:01:59.182Z,11.40
2018-04-13T14:04:26.719Z,11.40
2018-04-13T14:06:55.134Z,11.50
2018-04-13T14:09:26.216Z,11.50
2018-04-13T14:11:59.920Z,11.50
2018-04-13T14:14:27.483Z,11.40
2018-04-13T14:16:57.920Z,11.40
2018-04-13T14:19:32.174Z,11.40
2018-04-13T14:21:59.810Z,11.40
2018-04-13T14:24:28.050Z,11.30
2018-04-13T14:27:02.551Z,11.20
2018-04-13T14:29:30.138Z,11.20
2018-04-13T14:31:58.429Z,11.00
2018-04-13T14:34:29.068Z,11.00
2018-04-13T14:36:57.548Z,11.00
2018-04-13T14:39:26.322Z,11.00
2018-04-13T14:41:57.519Z,11.00
2018-04-13T14:44:25.031Z,11.00
2018-04-13T14:46:53.358Z,11.00
2018-04-13T14:49:21.013Z,11.00
2018-04-13T14:51:48.572Z,11.00
2018-04-13T14:54:16.878Z,11.10
2018-04-13T14:56:44.426Z,11.10
2018-04-13T14:59:12.738Z,11.10
2018-04-13T15:01:40.241Z,11.00
2018-04-13T15:04:07.767Z,11.10
2018-04-13T15:09:23.405Z,11.00
2018-04-13T15:11:57.754Z,11.00
2018-04-13T15:14:26.225Z,10.90
2018-04-13T15:16:57.635Z,10.80
2018-04-13T15:19:25.144Z,10.80
2018-04-13T15:21:53.417Z,10.70
2018-04-13T15:24:27.306Z,10.70
2018-04-13T15:26:54.826Z,10.70
2018-04-13T15:29:22.405Z,10.70
2018-04-13T15:31:49.902Z,10.60
2018-04-13T15:34:18.163Z,10.70
2018-04-13T15:36:46.686Z,10.70
2018-04-13T15:39:14.948Z,10.60
2018-04-13T15:41:57.681Z,10.60
2018-04-13T15:44:28.953Z,10.70
2018-04-13T15:46:56.624Z,10.70
2018-04-13T15:49:32.924Z,10.60
2018-04-13T15:52:01.381Z,10.50
2018-04-13T15:54:28.937Z,10.50
2018-04-13T15:56:59.501Z,10.60
2018-04-13T15:59:29.064Z,10.50
2018-04-13T16:01:59.369Z,10.70
2018-04-13T16:04:27.842Z,10.80
2018-04-13T16:06:58.731Z,10.70
2018-04-13T16:09:27.893Z,10.80
2018-04-13T16:11:58.599Z,11.00
2018-04-13T16:14:26.096Z,11.00
2018-04-13T16:17:00.250Z,11.00
2018-04-13T16:19:27.801Z,11.00
2018-04-13T16:34:29.199Z,11.00
2018-04-13T16:36:58.183Z,11.00
2018-04-13T16:39:29.271Z,11.10
2018-04-13T16:41:56.888Z,11.10
2018-04-13T16:44:27.664Z,11.10
2018-04-13T16:46:59.462Z,11.10
2018-04-13T16:49:29.287Z,11.10
2018-04-13T16:51:58.021Z,11.10
2018-04-13T16:54:28.779Z,11.10
2018-04-13T17:08:01.335Z,11.00
2018-04-13T17:10:30.836Z,10.90
2018-04-13T17:12:59.146Z,10.90
2018-04-13T17:15:26.740Z,11.00
2018-04-13T17:17:58.137Z,11.00
2018-04-13T17:20:30.066Z,11.00
2018-04-13T17:22:58.495Z,11.00
2018-04-13T17:25:29.045Z,10.90
2018-04-13T20:48:07.164Z,10.90
2018-04-13T20:53:43.572Z,10.60
2018-04-13T20:56:11.176Z,10.60
2018-04-13T20:58:51.413Z,10.60
2018-04-13T21:01:18.895Z,10.60
2018-04-13T21:03:46.368Z,10.60
2018-04-13T21:06:13.884Z,10.50
2018-04-13T21:08:41.423Z,10.60
2018-04-13T21:11:08.903Z,10.60
2018-04-13T21:13:37.380Z,10.60
2018-04-13T21:16:04.873Z,10.60
2018-04-13T21:18:32.390Z,10.60
2018-04-13T21:20:59.854Z,10.60
2018-04-13T21:23:34.016Z,10.50
2018-04-13T21:26:01.486Z,10.50
2018-04-13T21:28:28.991Z,10.50
2018-04-13T21:30:56.483Z,10.50
2018-04-13T21:33:24.027Z,10.50
2018-04-13T21:36:02.117Z,10.50
2018-04-13T21:38:29.591Z,10.40
2018-04-13T21:40:57.843Z,10.50
2018-04-13T21:43:25.484Z,10.50
2018-04-13T21:45:52.966Z,10.50
2018-04-13T21:48:40.200Z,10.40
2018-04-13T21:51:07.704Z,10.50
2018-04-13T21:53:37.915Z,10.50
2018-04-13T21:56:06.150Z,10.50
2018-04-13T21:58:34.387Z,10.50
2018-04-13T22:01:02.047Z,10.50
2018-04-13T22:03:29.692Z,10.50
2018-04-13T22:05:57.196Z,10.50
2018-04-13T22:08:24.707Z,10.50
2018-04-13T22:10:52.187Z,10.50
2018-04-13T22:13:28.935Z,10.50
2018-04-13T22:16:02.019Z,10.50
2018-04-13T22:18:29.570Z,10.60
2018-04-13T22:21:16.059Z,10.60
2018-04-13T22:23:44.456Z,10.60
2018-04-13T22:26:11.964Z,10.60
2018-04-13T22:28:56.699Z,10.50
2018-04-13T22:31:24.996Z,10.50
2018-04-13T22:33:52.503Z,10.50
2018-04-13T22:36:20.252Z,10.50
2018-04-13T22:38:47.772Z,10.50
2018-04-13T22:41:18.249Z,10.50
2018-04-13T22:43:50.963Z,10.50
2018-04-13T22:46:18.475Z,10.50
2018-04-13T22:48:45.944Z,10.60
2018-04-13T22:51:18.922Z,10.60
2018-04-13T22:53:46.425Z,10.60
2018-04-13T22:56:13.969Z,10.50
2018-04-13T22:58:41.491Z,10.50
2018-04-13T23:01:09.751Z,10.40
2018-04-13T23:03:37.510Z,10.40
2018-04-13T23:06:05.037Z,10.40
2018-04-13T23:08:33.329Z,10.40
2018-04-13T23:11:17.934Z,10.40
2018-04-13T23:13:45.440Z,10.40
2018-04-13T23:16:12.944Z,10.40
2018-04-13T23:18:40.446Z,10.30
2018-04-13T23:21:07.950Z,10.40
2018-04-13T23:23:35.436Z,10.40
2018-04-13T23:26:03.711Z,10.40
2018-04-13T23:28:31.183Z,10.40
2018-04-13T23:30:58.706Z,10.40
2018-04-13T23:33:26.330Z,10.30
2018-04-13T23:35:54.563Z,10.40
2018-04-13T23:38:22.827Z,10.40
2018-04-13T23:40:50.418Z,10.40
2018-04-13T23:43:17.892Z,10.50
2018-04-13T23:45:46.172Z,10.60
2018-04-13T23:48:35.153Z,10.50
2018-04-13T23:51:02.651Z,10.60
2018-04-13T23:53:30.173Z,10.60
2018-04-13T23:55:58.024Z,10.50
2018-04-13T23:58:26.284Z,10.50
